Terminal Aerodrome Forecast
Issued by NWS Topeka, KS

Home | Current Version | Previous Version | Graphics & Text | Print | Product List | Glossary On
Versions: 1 2 3 4 5 6 7 8 9 10 11 12 13 14 15 16 17 18 19 20 21 22 23 24 25
817
FTUS43 KTOP 300520
TAFTOP
TAF
KTOP 300520Z 3006/0106 04014G22KT 4SM -RA BR OVC008
      TEMPO 3010/3014 2SM RA BR OVC005
     FM301500 14008KT P6SM VCSH OVC009
     FM301800 17013KT P6SM VCSH OVC015
     FM010100 19010KT P6SM OVC008=

USA.gov is the U.S. government's official web portal to all federal, state and local government web resources and services.